Time;durP1;ratioP1;P1;durP2;ratioP2;P2;SDS_P1;SDS_P2;PMS_P1;PMS_P2;Temp;Humidity;BMP_temperature;BMP_pressure;BME280_temperature;BME280_humidity;BME280_pressure;Samples;Min_cycle;Max_cycle;Signal;HPM_P1;HPM_P2
2023/01/20 00:01:24;;;;;;;27.15;15.27;;;;;;;0.32;100.00;100379.38;6078066;23;20054;-80
2023/01/20 00:03:52;;;;;;;30.48;16.67;;;;;;;0.33;100.00;100384.44;6076328;23;20078;-81
2023/01/20 00:06:20;;;;;;;28.67;14.88;;;;;;;0.32;100.00;100377.63;6076556;23;20047;-81
2023/01/20 00:08:50;;;;;;;27.63;14.93;;;;;;;0.40;100.00;100384.06;6077466;23;20081;-80
2023/01/20 00:11:18;;;;;;;28.75;15.57;;;;;;;0.41;100.00;100386.53;6076341;23;20140;-79
2023/01/20 00:13:45;;;;;;;26.55;15.27;;;;;;;0.41;100.00;100383.97;6076930;23;20034;-81
2023/01/20 00:16:12;;;;;;;27.33;15.93;;;;;;;0.41;100.00;100393.44;6076687;23;20283;-80
2023/01/20 00:18:40;;;;;;;28.85;14.55;;;;;;;0.43;100.00;100389.84;6077329;23;20037;-79
2023/01/20 00:21:08;;;;;;;27.08;15.52;;;;;;;0.40;100.00;100394.34;6078178;23;20340;-79
2023/01/20 00:23:35;;;;;;;29.70;15.77;;;;;;;0.39;100.00;100390.13;6076556;23;20047;-81
2023/01/20 00:26:04;;;;;;;29.00;16.00;;;;;;;0.44;100.00;100395.81;6074305;23;20026;-80
2023/01/20 00:28:32;;;;;;;30.63;15.40;;;;;;;0.45;100.00;100405.19;6073979;23;20097;-82
2023/01/20 00:30:59;;;;;;;35.72;16.58;;;;;;;0.49;100.00;100406.59;6073683;23;20073;-81
2023/01/20 00:33:26;;;;;;;31.55;15.32;;;;;;;0.55;100.00;100401.06;6073384;23;20027;-80
2023/01/20 00:35:52;;;;;;;28.48;15.65;;;;;;;0.56;100.00;100403.56;6074480;23;20420;-81
2023/01/20 00:38:19;;;;;;;31.00;17.02;;;;;;;0.52;100.00;100406.41;6075439;23;20026;-81
2023/01/20 00:40:53;;;;;;;32.35;16.20;;;;;;;0.50;100.00;100403.94;6075133;23;20031;-79
2023/01/20 00:43:20;;;;;;;28.60;16.17;;;;;;;0.51;100.00;100415.88;6073405;23;20054;-78
2023/01/20 00:45:48;;;;;;;26.17;15.38;;;;;;;0.50;100.00;100414.25;6074978;23;20037;-80
2023/01/20 00:48:14;;;;;;;29.92;15.57;;;;;;;0.51;100.00;100409.91;6074270;23;20416;-78
2023/01/20 00:50:41;;;;;;;30.02;15.55;;;;;;;0.49;100.00;100417.72;6074493;23;20027;-79
2023/01/20 00:53:08;;;;;;;29.77;14.95;;;;;;;0.50;100.00;100413.41;6075016;23;20023;-81
2023/01/20 00:55:39;;;;;;;28.88;15.38;;;;;;;0.50;100.00;100415.97;6074928;23;20079;-80
2023/01/20 00:58:06;;;;;;;29.65;16.73;;;;;;;0.48;100.00;100417.81;6076473;23;20025;-81
2023/01/20 01:00:33;;;;;;;30.88;16.10;;;;;;;0.44;100.00;100424.13;6077811;23;20015;-80
2023/01/20 01:03:04;;;;;;;31.15;17.75;;;;;;;0.53;100.00;100426.09;6080462;23;20034;-81
2023/01/20 01:05:30;;;;;;;28.17;15.80;;;;;;;0.52;100.00;100424.44;6081239;23;20060;-80
2023/01/20 01:07:57;;;;;;;27.67;15.48;;;;;;;0.54;100.00;100431.16;6082399;23;20050;-79
2023/01/20 01:10:24;;;;;;;30.58;16.02;;;;;;;0.48;100.00;100428.13;6082013;23;20018;-78
2023/01/20 01:12:51;;;;;;;28.08;15.55;;;;;;;0.54;100.00;100438.03;6081874;23;20027;-79
2023/01/20 01:15:18;;;;;;;32.72;16.15;;;;;;;0.49;100.00;100432.34;6080055;23;20050;-81
2023/01/20 01:17:45;;;;;;;30.15;16.23;;;;;;;0.47;100.00;100436.81;6077337;23;20051;-80
2023/01/20 01:22:42;;;;;;;31.40;15.95;;;;;;;0.38;100.00;100433.06;6095751;23;20018;-77
2023/01/20 01:25:09;;;;;;;29.92;16.02;;;;;;;0.37;100.00;100435.72;6095976;23;20425;-77
2023/01/20 01:27:35;;;;;;;30.10;16.10;;;;;;;0.39;100.00;100439.03;6095620;23;20097;-75
2023/01/20 01:30:03;;;;;;;29.67;15.60;;;;;;;0.43;100.00;100443.06;6086206;23;20102;-76
2023/01/20 01:32:29;;;;;;;31.38;16.10;;;;;;;0.47;100.00;100450.50;6066760;23;20399;-76
2023/01/20 01:34:56;;;;;;;27.70;15.45;;;;;;;0.49;100.00;100453.78;6066816;23;20027;-77
2023/01/20 01:37:23;;;;;;;29.90;16.20;;;;;;;0.50;100.00;100460.56;6066382;23;20105;-76
2023/01/20 01:39:51;;;;;;;29.80;16.90;;;;;;;0.45;100.00;100451.50;6066733;23;20061;-76
2023/01/20 01:42:20;;;;;;;26.88;15.27;;;;;;;0.49;100.00;100458.09;6066290;23;20102;-74
2023/01/20 01:45:18;;;;;;;27.23;14.73;;;;;;;0.43;100.00;100466.22;6066986;23;20372;-77
2023/01/20 01:47:49;;;;;;;29.63;16.25;;;;;;;0.36;100.00;100465.78;6067149;23;20031;-77
2023/01/20 01:50:21;;;;;;;31.10;16.35;;;;;;;0.32;100.00;100472.88;6066652;23;20097;-77
2023/01/20 01:52:52;;;;;;;31.38;14.95;;;;;;;0.27;100.00;100467.16;6066560;23;20074;-77
2023/01/20 01:55:25;;;;;;;31.13;15.70;;;;;;;0.19;100.00;100459.09;6066683;23;20065;-77
2023/01/20 01:57:52;;;;;;;;;;;;;;;0.15;100.00;100473.06;6067605;23;20102;-78
2023/01/20 02:00:20;;;;;;;26.02;14.88;;;;;;;0.13;100.00;100479.22;6066934;23;19918;-77
2023/01/20 02:02:47;;;;;;;32.20;15.48;;;;;;;0.09;100.00;100476.00;6066740;23;20029;-78
2023/01/20 02:05:15;;;;;;;35.33;16.98;;;;;;;0.06;100.00;100478.75;6066457;23;20507;-74
2023/01/20 02:07:45;;;;;;;29.10;15.80;;;;;;;0.07;100.00;100477.00;6067637;23;20094;-76
2023/01/20 02:10:12;;;;;;;32.17;16.02;;;;;;;-0.03;100.00;100479.34;6066738;23;20097;-77
2023/01/20 02:12:42;;;;;;;34.70;17.00;;;;;;;-0.08;100.00;100481.34;6066308;23;20027;-77
2023/01/20 02:15:09;;;;;;;31.00;15.57;;;;;;;-0.15;100.00;100482.63;6066582;23;20065;-76
2023/01/20 02:17:43;;;;;;;33.75;17.13;;;;;;;-0.07;100.00;100488.16;6066268;23;20066;-77
2023/01/20 02:20:36;;;;;;;31.70;16.67;;;;;;;-0.10;100.00;100485.75;6066017;23;20102;-76
2023/01/20 02:23:11;;;;;;;34.35;16.17;;;;;;;-0.03;100.00;100492.19;6066454;23;20439;-78
2023/01/20 02:26:11;;;;;;;34.38;17.65;;;;;;;-0.04;100.00;100495.69;6066681;23;20337;-75
2023/01/20 02:29:02;;;;;;;36.20;17.08;;;;;;;0.10;100.00;100498.25;6051836;23;20054;-75
2023/01/20 02:34:44;;;;;;;32.70;17.33;;;;;;;0.11;100.00;100502.47;5133640;27;20418;-76
2023/01/20 02:37:15;;;;;;;32.35;18.45;;;;;;;0.16;100.00;100505.59;5090050;28;20071;-73
2023/01/20 02:39:46;;;;;;;37.13;19.08;;;;;;;0.19;100.00;100507.97;5104751;28;20048;-77
2023/01/20 02:42:19;;;;;;;37.67;18.08;;;;;;;0.29;100.00;100516.81;5098579;28;20061;-77
2023/01/20 02:44:49;;;;;;;;;;;;;;;0.35;100.00;100517.34;5101279;28;20079;-76
2023/01/20 02:49:53;;;;;;;35.92;17.55;;;;;;;0.43;100.00;100522.88;5104813;28;20051;-78
2023/01/20 02:52:24;;;;;;;32.50;18.40;;;;;;;0.45;100.00;100518.44;5093752;28;20044;-78
2023/01/20 02:54:54;;;;;;;32.85;18.02;;;;;;;0.48;100.00;100513.91;5093169;28;20045;-76
2023/01/20 02:57:26;;;;;;;35.40;18.88;;;;;;;0.44;100.00;100507.31;5098090;28;20071;-75
2023/01/20 03:00:02;;;;;;;34.90;19.05;;;;;;;0.49;100.00;100519.88;5117366;28;20062;-78
2023/01/20 03:02:33;;;;;;;36.40;18.67;;;;;;;0.48;100.00;100508.75;5115492;28;20051;-79
2023/01/20 03:05:07;;;;;;;39.15;19.27;;;;;;;0.50;100.00;100511.25;5121743;28;20044;-79
2023/01/20 03:07:37;;;;;;;33.17;18.95;;;;;;;0.59;100.00;100508.94;5112247;28;20072;-77
2023/01/20 03:10:09;;;;;;;33.20;18.38;;;;;;;0.52;100.00;100509.41;5121829;28;20426;-77
2023/01/20 03:12:42;;;;;;;33.90;19.40;;;;;;;0.59;100.00;100520.97;5115181;28;20036;-76
2023/01/20 03:15:10;;;;;;;37.30;18.77;;;;;;;0.63;100.00;100512.13;5118266;28;20071;-78
2023/01/20 03:17:38;;;;;;;32.13;18.15;;;;;;;0.62;100.00;100507.91;5116512;28;20053;-79
2023/01/20 03:20:07;;;;;;;35.50;18.45;;;;;;;0.60;100.00;100509.75;5118840;28;20139;-78
2023/01/20 03:22:34;;;;;;;35.03;19.52;;;;;;;0.45;100.00;100508.16;5115769;28;20126;-77
2023/01/20 03:25:02;;;;;;;36.50;18.05;;;;;;;0.37;100.00;100511.19;5117260;28;20048;-78
2023/01/20 03:27:29;;;;;;;37.80;19.27;;;;;;;0.31;100.00;100520.09;5116238;28;20058;-78
2023/01/20 03:29:55;;;;;;;36.60;18.95;;;;;;;0.23;100.00;100524.88;5117438;28;20139;-78
2023/01/20 03:32:25;;;;;;;34.35;19.23;;;;;;;0.21;100.00;100526.72;5118081;28;20059;-77
2023/01/20 03:34:54;;;;;;;34.03;17.48;;;;;;;0.14;100.00;100525.44;5119085;28;20161;-79
2023/01/20 03:37:23;;;;;;;34.58;18.75;;;;;;;0.08;100.00;100525.81;5126359;28;20047;-80
2023/01/20 03:39:52;;;;;;;32.28;18.67;;;;;;;0.08;100.00;100533.53;5117104;28;20075;-78
2023/01/20 03:42:28;;;;;;;33.72;18.58;;;;;;;0.11;100.00;100530.75;5124304;28;20073;-77
2023/01/20 03:45:05;;;;;;;32.50;18.88;;;;;;;0.13;100.00;100531.50;5112146;28;20131;-79
2023/01/20 03:47:48;;;;;;;37.28;18.35;;;;;;;0.16;100.00;100535.63;5107611;28;20126;-79
2023/01/20 03:50:26;;;;;;;34.33;19.30;;;;;;;0.17;100.00;100532.97;5098451;28;20131;-77
2023/01/20 03:52:58;;;;;;;30.98;17.90;;;;;;;0.20;100.00;100539.69;5104909;28;20071;-77
2023/01/20 03:55:33;;;;;;;36.58;18.48;;;;;;;0.23;100.00;100548.06;5105098;28;20126;-79
2023/01/20 03:58:04;;;;;;;32.60;18.35;;;;;;;0.23;100.00;100545.47;5100887;28;20207;-78
2023/01/20 04:00:34;;;;;;;35.97;19.23;;;;;;;0.21;100.00;100546.50;5083064;28;20048;-79
2023/01/20 04:03:06;;;;;;;39.45;19.23;;;;;;;0.21;100.00;100556.78;5105553;28;20116;-80
2023/01/20 04:05:35;;;;;;;35.92;18.60;;;;;;;0.23;100.00;100560.09;5101306;28;20136;-80
2023/01/20 04:08:07;;;;;;;35.75;19.45;;;;;;;0.24;100.00;100564.31;5107180;28;20079;-80
2023/01/20 04:10:36;;;;;;;25.55;14.20;;;;;;;0.30;100.00;100561.38;5090017;28;20048;-79
2023/01/20 04:13:03;;;;;;;32.35;18.88;;;;;;;0.32;100.00;100556.97;5091490;28;20512;-78
2023/01/20 04:15:36;;;;;;;33.20;18.48;;;;;;;0.31;100.00;100563.03;5096779;28;20071;-80
2023/01/20 04:18:12;;;;;;;;;;;;;;;0.40;100.00;100577.09;5107904;28;20448;-79
2023/01/20 04:20:40;;;;;;;30.15;18.10;;;;;;;0.37;100.00;100564.41;5108725;28;20002;-79
2023/01/20 04:23:13;;;;;;;36.95;18.25;;;;;;;0.37;100.00;100572.13;5106692;28;20060;-79
2023/01/20 04:25:40;;;;;;;35.47;19.05;;;;;;;0.38;100.00;100569.47;5104546;28;20533;-79
2023/01/20 04:28:07;;;;;;;30.73;18.88;;;;;;;0.37;100.00;100572.13;5108788;28;20041;-80
2023/01/20 04:30:33;;;;;;;30.98;17.10;;;;;;;0.36;100.00;100580.78;5101969;28;20048;-79
2023/01/20 04:33:12;;;;;;;30.23;18.98;;;;;;;0.29;100.00;100560.56;5092792;28;20409;-79
2023/01/20 04:35:38;;;;;;;37.67;20.23;;;;;;;0.21;100.00;100567.06;5101955;28;20152;-78
2023/01/20 04:38:05;;;;;;;34.42;18.75;;;;;;;0.20;100.00;100580.84;5096038;28;20070;-77
2023/01/20 04:40:36;;;;;;;35.20;18.77;;;;;;;0.18;100.00;100573.22;5094518;28;20127;-78
2023/01/20 04:43:02;;;;;;;35.75;19.83;;;;;;;0.19;100.00;100579.19;5102247;28;20159;-79
2023/01/20 04:45:29;;;;;;;35.25;20.80;;;;;;;0.18;100.00;100573.22;5103614;28;20492;-80
2023/01/20 04:47:56;;;;;;;36.22;20.45;;;;;;;0.05;100.00;100572.28;5101870;28;20126;-79
2023/01/20 04:50:22;;;;;;;35.03;20.20;;;;;;;0.05;100.00;100572.28;5105368;28;20071;-79
2023/01/20 04:52:49;;;;;;;37.72;20.23;;;;;;;-0.01;100.00;100583.81;5101649;28;20561;-80
2023/01/20 04:55:16;;;;;;;35.17;19.73;;;;;;;-0.22;100.00;100561.06;5115885;28;20063;-80
2023/01/20 04:57:44;;;;;;;36.08;19.98;;;;;;;-0.24;100.00;100581.72;5105713;28;20075;-79
2023/01/20 05:00:17;;;;;;;36.38;20.45;;;;;;;-0.22;100.00;100576.50;5094306;28;20090;-79
2023/01/20 05:02:43;;;;;;;40.45;20.23;;;;;;;-0.20;100.00;100582.38;5105162;28;20055;-80
2023/01/20 05:05:10;;;;;;;36.67;20.45;;;;;;;-0.24;100.00;100580.88;5093994;28;20084;-77
2023/01/20 05:07:37;;;;;;;41.53;20.90;;;;;;;-0.17;100.00;100592.47;5105286;28;20078;-79
2023/01/20 05:10:04;;;;;;;35.25;19.88;;;;;;;-0.07;100.00;100599.59;5103873;28;20477;-79
2023/01/20 05:12:31;;;;;;;34.85;19.92;;;;;;;-0.05;100.00;100596.94;5103295;28;20066;-78
2023/01/20 05:14:58;;;;;;;32.25;18.45;;;;;;;-0.09;100.00;100590.31;5092663;28;20104;-76
2023/01/20 05:17:25;;;;;;;35.58;19.05;;;;;;;-0.14;100.00;100587.16;5102330;28;20070;-80
2023/01/20 05:19:52;;;;;;;38.05;20.45;;;;;;;-0.12;100.00;100590.47;5102488;28;20148;-80
2023/01/20 05:22:18;;;;;;;37.25;19.63;;;;;;;-0.17;100.00;100592.47;5100240;28;20486;-79
2023/01/20 05:24:45;;;;;;;35.40;19.00;;;;;;;-0.12;100.00;100600.75;5100452;28;20131;-81
2023/01/20 05:27:12;;;;;;;34.50;19.08;;;;;;;-0.13;100.00;100606.81;5099678;28;20051;-80
2023/01/20 05:29:38;;;;;;;36.53;19.48;;;;;;;-0.18;100.00;100596.81;5106351;28;20121;-80
2023/01/20 05:32:06;;;;;;;34.15;18.50;;;;;;;-0.26;100.00;100608.44;5087084;28;20083;-80
2023/01/20 05:34:33;;;;;;;32.03;17.95;;;;;;;-0.37;100.00;100606.47;5094047;28;20071;-80
2023/01/20 05:37:00;;;;;;;33.53;18.65;;;;;;;-0.44;100.00;100610.28;5091760;28;20102;-80
2023/01/20 05:39:26;;;;;;;39.75;20.75;;;;;;;-0.40;100.00;100616.91;5102463;28;20479;-78
2023/01/20 05:41:53;;;;;;;40.22;20.65;;;;;;;-0.29;100.00;100621.47;5096480;28;20174;-79
2023/01/20 05:44:19;;;;;;;35.88;19.55;;;;;;;-0.25;100.00;100622.94;5103030;28;20066;-79
2023/01/20 05:46:46;;;;;;;31.85;18.77;;;;;;;-0.27;100.00;100620.47;5097245;28;20079;-80
2023/01/20 05:49:14;;;;;;;33.13;18.73;;;;;;;-0.27;100.00;100627.34;5101514;28;20048;-79
2023/01/20 05:51:41;;;;;;;37.35;19.40;;;;;;;-0.32;100.00;100617.31;5106502;28;20064;-79
2023/01/20 05:54:07;;;;;;;41.65;19.83;;;;;;;-0.27;100.00;100629.91;5099656;28;20100;-78
2023/01/20 05:56:34;;;;;;;37.95;19.83;;;;;;;-0.26;100.00;100619.56;5094389;28;20043;-81
2023/01/20 05:59:00;;;;;;;39.72;19.40;;;;;;;-0.41;100.00;100625.56;5097058;28;20485;-78
2023/01/20 06:01:27;;;;;;;33.55;17.85;;;;;;;-0.48;100.00;100624.25;5096049;28;20593;-79
2023/01/20 06:03:54;;;;;;;33.83;18.65;;;;;;;-0.57;100.00;100624.78;5097267;28;20036;-79
2023/01/20 06:06:22;;;;;;;36.70;18.92;;;;;;;-0.53;100.00;100626.25;5092802;28;20139;-78
2023/01/20 06:08:51;;;;;;;33.65;18.90;;;;;;;-0.57;100.00;100635.88;5086997;28;20143;-79
2023/01/20 06:11:18;;;;;;;34.88;18.48;;;;;;;-0.66;100.00;100631.25;5096842;28;20189;-79
2023/01/20 06:13:46;;;;;;;39.03;19.05;;;;;;;-0.62;100.00;100645.59;5095554;28;20051;-78
2023/01/20 06:16:13;;;;;;;37.53;20.08;;;;;;;-0.62;100.00;100644.75;5079647;28;20549;-79
2023/01/20 06:18:39;;;;;;;41.78;19.20;;;;;;;-0.56;100.00;100660.66;5097314;28;20058;-80
2023/01/20 06:21:06;;;;;;;36.10;18.85;;;;;;;-0.59;100.00;100649.72;5093381;28;20135;-79
2023/01/20 06:23:34;;;;;;;33.85;19.10;;;;;;;-0.53;100.00;100650.22;5097948;28;20118;-78
2023/01/20 06:26:02;;;;;;;32.00;17.58;;;;;;;-0.49;100.00;100653.44;5084047;28;20098;-78
2023/01/20 06:28:31;;;;;;;38.00;17.90;;;;;;;-0.40;100.00;100658.88;5088616;28;20176;-79
2023/01/20 06:31:06;;;;;;;29.45;16.85;;;;;;;-0.45;100.00;100657.47;5094242;28;20051;-80
2023/01/20 06:33:34;;;;;;;29.48;17.13;;;;;;;-0.37;100.00;100663.84;5102083;28;20115;-79
2023/01/20 06:36:01;;;;;;;31.45;17.42;;;;;;;-0.34;100.00;100663.69;5094806;28;20097;-78
2023/01/20 06:38:30;;;;;;;39.80;17.73;;;;;;;-0.31;100.00;100667.00;5104084;28;20076;-80
2023/01/20 06:40:59;;;;;;;32.85;18.98;;;;;;;-0.35;100.00;100645.78;5100517;28;20104;-80
2023/01/20 06:43:28;;;;;;;28.13;16.52;;;;;;;-0.28;100.00;100659.94;5102837;28;20126;-80
2023/01/20 06:45:59;;;;;;;32.15;16.48;;;;;;;-0.35;100.00;100662.03;5100510;28;20074;-78
2023/01/20 06:48:25;;;;;;;28.15;17.60;;;;;;;-0.33;100.00;100656.81;5091119;28;20048;-76
2023/01/20 06:50:52;;;;;;;30.80;17.30;;;;;;;-0.45;100.00;100658.31;5086084;28;20152;-80
2023/01/20 06:53:19;;;;;;;29.75;16.90;;;;;;;-0.36;100.00;100665.50;5101401;28;20059;-80
2023/01/20 06:55:54;;;;;;;28.48;16.70;;;;;;;-0.34;100.00;100678.28;5102695;28;20133;-80
2023/01/20 06:58:26;;;;;;;27.52;16.70;;;;;;;-0.36;100.00;100680.94;5106980;28;20058;-80
2023/01/20 07:00:53;;;;;;;29.40;17.10;;;;;;;-0.30;100.00;100681.53;5092791;28;20044;-80
2023/01/20 07:03:22;;;;;;;33.60;18.38;;;;;;;-0.32;100.00;100679.03;5111874;28;20059;-81
2023/01/20 07:05:55;;;;;;;29.60;17.45;;;;;;;-0.22;100.00;100693.03;5098013;28;20060;-78
2023/01/20 07:08:22;;;;;;;28.17;15.70;;;;;;;-0.15;100.00;100702.06;5114001;28;20508;-81
2023/01/20 07:10:48;;;;;;;30.65;17.30;;;;;;;-0.17;100.00;100687.63;5104659;28;20182;-83
2023/01/20 07:13:15;;;;;;;35.40;18.13;;;;;;;-0.05;100.00;100704.97;5103625;28;20052;-79
2023/01/20 07:15:43;;;;;;;49.92;29.73;;;;;;;0.01;100.00;100704.59;5087333;28;20070;-79
2023/01/20 07:18:10;;;;;;;40.35;24.00;;;;;;;0.11;100.00;100710.88;5097832;28;20130;-79
2023/01/20 07:20:37;;;;;;;33.15;18.38;;;;;;;0.12;100.00;100702.25;5100150;28;20075;-78
2023/01/20 07:23:05;;;;;;;34.53;21.73;;;;;;;0.18;100.00;100704.47;5083035;28;20131;-79
2023/01/20 07:25:31;;;;;;;32.67;19.40;;;;;;;0.12;100.00;100694.50;5100946;28;20107;-79
2023/01/20 07:27:58;;;;;;;34.53;19.75;;;;;;;0.20;100.00;100707.78;5088129;28;20048;-79
2023/01/20 07:30:25;;;;;;;34.38;18.77;;;;;;;0.31;100.00;100712.31;5090725;28;20048;-78
2023/01/20 07:32:53;;;;;;;30.80;20.00;;;;;;;0.32;100.00;100717.38;5092934;28;20048;-78
2023/01/20 07:35:20;;;;;;;45.10;29.90;;;;;;;0.39;100.00;100725.56;5105078;28;20108;-78
2023/01/20 07:37:47;;;;;;;34.25;21.17;;;;;;;0.40;100.00;100723.84;5093698;28;20139;-79
2023/01/20 07:40:13;;;;;;;30.20;19.05;;;;;;;0.47;100.00;100728.53;5100492;28;20095;-77
2023/01/20 07:42:40;;;;;;;32.47;17.92;;;;;;;0.49;100.00;100723.28;5101673;28;20048;-78
2023/01/20 07:45:08;;;;;;;28.38;17.35;;;;;;;0.48;100.00;100732.72;5103309;28;20512;-78
2023/01/20 07:47:35;;;;;;;30.63;19.42;;;;;;;0.46;100.00;100738.94;5094486;28;20043;-77
2023/01/20 07:50:03;;;;;;;26.48;15.10;;;;;;;0.47;100.00;100738.84;5098616;28;20063;-78
2023/01/20 07:52:33;;;;;;;24.65;15.20;;;;;;;0.29;100.00;100727.84;5089042;28;20070;-79
2023/01/20 07:55:00;;;;;;;25.30;15.30;;;;;;;0.32;100.00;100732.00;5091883;28;20101;-79
2023/01/20 07:57:28;;;;;;;22.45;13.70;;;;;;;0.37;100.00;100742.03;5093849;28;20048;-79
2023/01/20 07:59:55;;;;;;;22.58;13.88;;;;;;;0.30;100.00;100737.22;5091270;28;20051;-79
2023/01/20 08:02:22;;;;;;;23.83;13.73;;;;;;;0.31;100.00;100746.59;5094223;28;20090;-77
2023/01/20 08:04:49;;;;;;;24.52;15.27;;;;;;;0.37;100.00;100758.28;5089035;28;20239;-79
2023/01/20 08:07:16;;;;;;;20.63;12.63;;;;;;;0.40;100.00;100762.44;5097513;28;20067;-77
2023/01/20 08:09:43;;;;;;;22.60;12.93;;;;;;;0.52;100.00;100767.69;5104130;28;20044;-78
2023/01/20 08:12:10;;;;;;;19.00;12.18;;;;;;;0.53;100.00;100768.53;5098259;28;20048;-77
2023/01/20 08:14:36;;;;;;;21.55;13.32;;;;;;;0.58;100.00;100776.81;5106306;28;20028;-79
2023/01/20 08:17:03;;;;;;;23.42;14.10;;;;;;;0.67;100.00;100781.44;5096691;28;20059;-77
2023/01/20 08:19:30;;;;;;;22.38;12.90;;;;;;;0.57;100.00;100773.41;5096210;28;20040;-77
2023/01/20 08:21:56;;;;;;;22.02;12.07;;;;;;;0.47;100.00;100763.75;5086503;28;20136;-77
2023/01/20 08:24:24;;;;;;;18.40;10.77;;;;;;;0.41;100.00;100770.06;5091112;28;20045;-78
2023/01/20 08:26:51;;;;;;;19.73;10.25;;;;;;;0.25;100.00;100764.97;5079768;28;20080;-78
2023/01/20 08:29:18;;;;;;;21.73;10.65;;;;;;;0.27;100.00;100767.44;5081719;28;20493;-77
2023/01/20 08:31:45;;;;;;;18.92;10.15;;;;;;;0.28;100.00;100774.25;5076899;28;20083;-78
2023/01/20 08:34:12;;;;;;;23.00;10.90;;;;;;;0.29;100.00;100770.78;5072334;28;20420;-77
2023/01/20 08:36:40;;;;;;;16.45;10.30;;;;;;;0.27;100.00;100770.03;5080544;28;20060;-77
2023/01/20 08:39:10;;;;;;;23.40;10.05;;;;;;;0.34;100.00;100771.34;5072536;28;20135;-78
2023/01/20 08:41:39;;;;;;;16.40;10.25;;;;;;;0.50;100.00;100789.28;5075364;28;20045;-77
2023/01/20 08:44:08;;;;;;;17.60;10.85;;;;;;;0.62;99.83;100791.16;5088423;28;20140;-76
2023/01/20 08:46:36;;;;;;;15.90;9.98;;;;;;;0.93;99.30;100809.09;5072154;28;20083;-76
2023/01/20 08:49:06;;;;;;;19.63;10.30;;;;;;;0.86;98.70;100802.63;5129190;22;20072;-78
2023/01/20 08:51:34;;;;;;;18.40;10.65;;;;;;;0.83;98.56;100805.38;5141786;27;20073;-77
2023/01/20 08:54:04;;;;;;;18.65;11.02;;;;;;;0.60;98.23;100795.56;5143342;27;20039;-78
2023/01/20 08:56:31;;;;;;;19.02;10.77;;;;;;;0.71;97.82;100795.78;5142354;27;20074;-76
2023/01/20 08:58:59;;;;;;;20.95;11.68;;;;;;;0.84;97.64;100789.00;5134693;27;20050;-78
2023/01/20 09:01:27;;;;;;;17.30;10.38;;;;;;;0.85;97.59;100797.56;5141046;27;20051;-79
2023/01/20 09:03:55;;;;;;;18.85;10.93;;;;;;;0.80;97.68;100797.00;5134804;27;20134;-78
2023/01/20 09:06:22;;;;;;;18.52;10.70;;;;;;;0.68;97.28;100798.53;5139780;27;20079;-78
2023/01/20 09:08:49;;;;;;;19.00;11.23;;;;;;;0.84;97.01;100804.47;5142600;27;20043;-80
2023/01/20 09:11:18;;;;;;;18.48;10.77;;;;;;;1.01;96.19;100800.88;5143290;27;20047;-78
2023/01/20 09:13:45;;;;;;;18.77;10.00;;;;;;;1.24;96.33;100809.84;5146352;27;20050;-80
2023/01/20 09:16:14;;;;;;;17.45;10.50;;;;;;;1.28;95.70;100808.72;5127328;27;20071;-80
2023/01/20 09:18:41;;;;;;;17.63;10.65;;;;;;;1.46;95.29;100801.59;5142790;27;20086;-81
2023/01/20 09:21:08;;;;;;;16.75;9.95;;;;;;;1.16;94.42;100796.56;5142010;27;20051;-81
2023/01/20 09:23:37;;;;;;;17.92;10.02;;;;;;;1.27;94.06;100804.50;5129490;27;20138;-80
2023/01/20 09:26:06;;;;;;;16.45;10.95;;;;;;;0.95;94.73;100791.75;5133510;27;20058;-80
2023/01/20 09:28:33;;;;;;;18.90;11.73;;;;;;;0.88;94.27;100790.50;5139827;27;20125;-78
2023/01/20 09:31:02;;;;;;;19.15;10.77;;;;;;;1.02;94.83;100804.28;5132361;27;20077;-79
2023/01/20 09:33:31;;;;;;;16.00;10.18;;;;;;;0.84;94.78;100799.31;5121929;28;20047;-79
2023/01/20 09:35:58;;;;;;;18.15;11.07;;;;;;;0.98;95.72;100801.06;5121362;28;20050;-80
2023/01/20 09:44:11;;;;;;;20.55;11.52;;;;;;;1.08;94.79;100801.34;5119127;28;20127;-80
2023/01/20 09:47:18;;;;;;;20.95;11.65;;;;;;;1.09;94.93;100805.59;5117974;28;20119;-79
2023/01/20 09:55:21;;;;;;;16.25;10.85;;;;;;;1.27;94.86;100815.63;5116567;28;20058;-79
2023/01/20 09:57:58;;;;;;;20.45;12.15;;;;;;;1.25;94.50;100799.44;5116611;28;20463;-80
2023/01/20 10:00:27;;;;;;;18.00;11.27;;;;;;;1.29;94.23;100805.22;5119960;28;20067;-80
2023/01/20 10:03:01;;;;;;;20.40;12.32;;;;;;;1.43;94.12;100812.09;5120994;28;20082;-79
2023/01/20 10:05:37;;;;;;;20.60;11.45;;;;;;;1.25;94.04;100814.06;5120635;28;20130;-80
2023/01/20 10:08:08;;;;;;;20.65;11.68;;;;;;;1.38;94.15;100815.00;5120703;28;20133;-80
2023/01/20 10:10:49;;;;;;;21.52;11.77;;;;;;;1.50;93.81;100819.38;5120361;28;20108;-79
2023/01/20 10:13:24;;;;;;;19.45;10.90;;;;;;;1.57;93.79;100810.34;5127541;27;20048;-79
2023/01/20 10:15:57;;;;;;;20.25;11.20;;;;;;;1.59;93.36;100808.50;5132827;27;20086;-80
2023/01/20 10:18:30;;;;;;;18.63;11.35;;;;;;;1.51;93.50;100810.72;5126902;27;20070;-80
2023/01/20 10:20:59;;;;;;;;;;;;;;;1.74;93.10;100819.63;5132505;27;20051;-80
2023/01/20 10:23:33;;;;;;;16.90;9.68;;;;;;;1.69;92.55;100811.34;5130364;28;19975;-80
2023/01/20 10:26:07;;;;;;;15.18;9.90;;;;;;;1.79;92.86;100816.78;5131892;27;20043;-80
2023/01/20 10:28:41;;;;;;;19.13;10.68;;;;;;;1.63;92.69;100809.97;5129993;27;20103;-80
2023/01/20 10:31:11;;;;;;;18.48;10.88;;;;;;;1.43;92.42;100806.94;5131051;27;20051;-80
2023/01/20 10:33:40;;;;;;;14.63;10.48;;;;;;;1.53;93.07;100819.19;5128957;28;20067;-78
2023/01/20 10:36:16;;;;;;;22.05;11.20;;;;;;;1.36;92.45;100806.53;5127057;28;20074;-81
2023/01/20 10:38:51;;;;;;;19.33;10.57;;;;;;;1.49;92.71;100804.00;5132503;28;20520;-79
2023/01/20 10:41:26;;;;;;;24.27;11.23;;;;;;;1.45;93.10;100805.09;5128618;28;20086;-80
2023/01/20 10:43:53;;;;;;;16.40;11.20;;;;;;;1.41;93.31;100803.66;5130113;28;20126;-79
2023/01/20 10:46:37;;;;;;;20.52;10.77;;;;;;;1.53;93.77;100808.88;5135952;28;20071;-79
2023/01/20 10:49:21;;;;;;;16.27;10.65;;;;;;;1.68;93.21;100796.81;5141630;28;20071;-80
2023/01/20 10:52:01;;;;;;;16.73;9.95;;;;;;;1.76;93.33;100798.91;5143726;28;20054;-80
2023/01/20 10:54:38;;;;;;;17.33;10.27;;;;;;;1.97;92.90;100792.38;5134239;28;20090;-80
2023/01/20 10:57:08;;;;;;;22.50;11.25;;;;;;;1.99;92.77;100795.69;5135387;27;20052;-80
2023/01/20 10:59:37;;;;;;;18.63;11.65;;;;;;;2.03;92.90;100796.31;5134926;27;20134;-79
2023/01/20 11:02:15;;;;;;;17.85;11.43;;;;;;;2.04;92.28;100793.66;5134368;27;20046;-80
2023/01/20 11:04:42;;;;;;;16.58;11.02;;;;;;;2.01;92.03;100786.09;5126403;27;20052;-80
2023/01/20 11:07:15;;;;;;;20.25;11.02;;;;;;;2.08;91.82;100789.94;5132910;27;20073;-79
2023/01/20 11:09:42;;;;;;;20.58;11.95;;;;;;;2.18;92.08;100800.53;5133187;27;20130;-80
2023/01/20 11:12:14;;;;;;;15.38;10.63;;;;;;;2.05;91.75;100795.31;5129634;27;20051;-80
2023/01/20 11:14:41;;;;;;;14.70;10.00;;;;;;;2.00;92.16;100800.75;5127065;27;20115;-79
2023/01/20 11:17:14;;;;;;;19.70;11.10;;;;;;;2.03;91.61;100792.00;5132559;27;20098;-79
2023/01/20 11:19:49;;;;;;;19.50;10.85;;;;;;;2.13;91.71;100787.91;5135921;27;20097;-78
2023/01/20 11:22:26;;;;;;;18.33;10.90;;;;;;;2.12;91.52;100782.84;5128839;27;20071;-78
2023/01/20 11:24:55;;;;;;;17.52;10.73;;;;;;;2.15;91.80;100786.06;5128967;27;20069;-79
2023/01/20 11:27:25;;;;;;;18.52;11.35;;;;;;;2.09;91.37;100778.69;5128834;27;20120;-79
2023/01/20 11:29:57;;;;;;;17.33;10.27;;;;;;;2.15;91.91;100782.66;5131291;27;20103;-81
2023/01/20 11:32:30;;;;;;;18.58;10.95;;;;;;;2.16;91.60;100779.97;5130794;27;20103;-79
2023/01/20 11:34:57;;;;;;;18.23;11.43;;;;;;;2.25;91.75;100788.88;5133678;27;20055;-80
2023/01/20 11:37:27;;;;;;;18.88;10.80;;;;;;;2.33;91.88;100778.88;5133706;27;20086;-80
2023/01/20 11:39:59;;;;;;;17.50;10.30;;;;;;;2.36;91.45;100780.44;5127612;27;20386;-78